createdAt,value
2019-04-13T00:01:50.195Z,1.50
2019-04-13T00:04:29.764Z,1.60
2019-04-13T00:06:54.653Z,1.50
2019-04-13T00:09:23.634Z,1.67
2019-04-13T00:12:10.073Z,1.97
2019-04-13T00:14:38.689Z,1.53
2019-04-13T00:17:08.365Z,1.70
2019-04-13T00:19:36.913Z,2.05
2019-04-13T00:22:05.803Z,1.70
2019-04-13T00:24:34.393Z,1.63
2019-04-13T00:27:02.940Z,1.80
2019-04-13T00:29:32.755Z,1.80
2019-04-13T00:32:02.316Z,1.60
2019-04-13T00:34:40.966Z,1.73
2019-04-13T00:37:01.061Z,1.70
2019-04-13T00:39:29.851Z,1.90
2019-04-13T00:41:58.903Z,2.00
2019-04-13T00:44:27.226Z,2.37
2019-04-13T00:46:55.763Z,1.83
2019-04-13T00:49:24.288Z,1.90
2019-04-13T00:51:52.794Z,2.20
2019-04-13T00:54:21.410Z,2.40
2019-04-13T00:56:51.902Z,1.53
2019-04-13T00:59:20.830Z,1.90
2019-04-13T01:01:50.081Z,1.90
2019-04-13T01:04:18.918Z,1.93
2019-04-13T01:06:47.659Z,2.20
2019-04-13T01:09:16.206Z,2.50
2019-04-13T01:11:44.672Z,2.00
2019-04-13T01:14:13.055Z,1.70
2019-04-13T01:16:41.459Z,1.40
2019-04-13T01:19:10.473Z,1.30
2019-04-13T01:21:39.018Z,1.53
2019-04-13T01:24:08.057Z,1.10
2019-04-13T01:26:36.991Z,1.10
2019-04-13T01:29:05.978Z,1.00
2019-04-13T01:31:34.901Z,1.30
2019-04-13T01:34:03.654Z,0.93
2019-04-13T01:36:32.368Z,1.10
2019-04-13T01:39:01.203Z,0.90
2019-04-13T01:41:31.307Z,1.00
2019-04-13T01:43:59.884Z,0.87
2019-04-13T01:46:28.325Z,0.77
2019-04-13T01:48:56.672Z,0.60
2019-04-13T01:51:25.209Z,0.73
2019-04-13T01:53:53.523Z,0.70
2019-04-13T01:56:21.962Z,0.60
2019-04-13T01:58:50.425Z,0.50
2019-04-13T02:01:41.127Z,0.53
2019-04-13T02:04:17.741Z,0.50
2019-04-13T02:07:18.127Z,0.53
2019-04-13T02:10:05.245Z,0.50
2019-04-13T02:12:34.126Z,0.57
2019-04-13T02:15:03.002Z,0.50
2019-04-13T02:17:31.392Z,0.50
2019-04-13T02:19:59.784Z,0.70
2019-04-13T02:22:28.313Z,0.50
2019-04-13T02:24:56.638Z,0.70
2019-04-13T02:27:25.109Z,0.90
2019-04-13T02:29:53.945Z,0.60
2019-04-13T02:32:22.429Z,0.67
2019-04-13T02:34:51.551Z,0.70
2019-04-13T02:37:20.263Z,0.60
2019-04-13T02:39:49.227Z,0.70
2019-04-13T02:42:17.837Z,0.60
2019-04-13T02:44:46.750Z,0.60
2019-04-13T02:47:15.585Z,0.90
2019-04-13T02:49:46.511Z,0.57
2019-04-13T02:52:15.176Z,0.50
2019-04-13T02:54:43.669Z,0.90
2019-04-13T02:57:12.206Z,1.20
2019-04-13T02:59:40.641Z,1.23
2019-04-13T03:02:09.753Z,1.37
2019-04-13T03:04:39.262Z,1.60
2019-04-13T03:07:07.822Z,1.80
2019-04-13T03:09:36.659Z,1.60
2019-04-13T03:12:05.856Z,1.20
2019-04-13T03:14:34.826Z,1.40
2019-04-13T03:17:32.701Z,1.20
2019-04-13T03:20:04.070Z,1.77
2019-04-13T03:22:33.276Z,1.20
2019-04-13T03:25:02.302Z,1.17
2019-04-13T03:27:31.032Z,0.93
2019-04-13T03:29:59.414Z,1.20
2019-04-13T03:32:28.214Z,1.00
2019-04-13T03:34:57.186Z,0.80
2019-04-13T03:37:26.066Z,1.00
2019-04-13T03:39:55.261Z,1.20
2019-04-13T03:42:23.794Z,0.83
2019-04-13T03:44:52.598Z,1.00
2019-04-13T03:47:21.165Z,1.00
2019-04-13T03:49:50.193Z,1.20
2019-04-13T03:52:19.110Z,1.00
2019-04-13T03:54:48.038Z,1.30
2019-04-13T03:57:17.147Z,1.30
2019-04-13T03:59:45.808Z,1.70
2019-04-13T04:02:14.559Z,1.80
2019-04-13T04:04:43.384Z,1.43
2019-04-13T04:07:12.234Z,1.97
2019-04-13T04:09:40.822Z,1.47
2019-04-13T04:12:10.175Z,1.60
2019-04-13T04:14:38.998Z,1.87
2019-04-13T04:17:07.540Z,1.77
2019-04-13T04:19:36.265Z,1.40
2019-04-13T04:22:04.921Z,2.10
2019-04-13T04:24:33.329Z,1.83
2019-04-13T04:27:03.471Z,1.93
2019-04-13T04:29:32.222Z,1.83
2019-04-13T04:32:01.635Z,1.40
2019-04-13T04:34:30.547Z,1.50
2019-04-13T04:36:59.234Z,1.50
2019-04-13T04:39:28.134Z,1.50
2019-04-13T04:41:57.070Z,1.67
2019-04-13T04:44:25.537Z,1.57
2019-04-13T04:46:54.205Z,2.10
2019-04-13T04:49:23.934Z,2.53
2019-04-13T04:51:52.583Z,1.93
2019-04-13T04:54:21.274Z,1.57
2019-04-13T04:56:50.162Z,1.83
2019-04-13T04:59:18.730Z,1.87
2019-04-13T05:01:47.158Z,1.53
2019-04-13T05:04:15.690Z,1.90
2019-04-13T05:06:44.097Z,2.07
2019-04-13T05:09:13.046Z,2.10
2019-04-13T05:11:41.766Z,1.77
2019-04-13T05:14:10.845Z,2.30
2019-04-13T05:16:39.162Z,1.93
2019-04-13T05:19:07.633Z,2.13
2019-04-13T05:21:35.951Z,2.10
2019-04-13T05:24:04.411Z,2.17
2019-04-13T05:26:32.741Z,1.50
2019-04-13T05:29:01.574Z,1.53
2019-04-13T05:31:30.634Z,1.50
2019-04-13T05:34:00.549Z,1.40
2019-04-13T05:36:29.030Z,1.43
2019-04-13T05:38:57.466Z,1.60
2019-04-13T05:41:25.840Z,1.57
2019-04-13T05:43:55.234Z,1.50
2019-04-13T05:46:23.613Z,1.90
2019-04-13T05:48:51.985Z,1.83
2019-04-13T05:51:21.043Z,1.50
2019-04-13T05:53:49.982Z,1.83
2019-04-13T05:56:18.465Z,1.40
2019-04-13T05:58:47.298Z,1.70
2019-04-13T06:01:16.094Z,1.73
2019-04-13T06:03:44.674Z,1.77
2019-04-13T06:06:13.467Z,1.80
2019-04-13T06:08:41.798Z,1.90
2019-04-13T06:11:10.273Z,1.67
2019-04-13T06:13:38.599Z,1.43
2019-04-13T06:16:08.969Z,1.60
2019-04-13T06:18:37.178Z,1.40
2019-04-13T06:21:06.971Z,1.43
2019-04-13T06:23:36.079Z,1.43
2019-04-13T06:26:04.658Z,1.33
2019-04-13T06:28:33.067Z,1.37
2019-04-13T06:31:26.678Z,1.43
2019-04-13T06:34:11.975Z,1.30
2019-04-13T06:36:41.797Z,1.00
2019-04-13T06:39:11.687Z,1.33
2019-04-13T06:41:43.775Z,1.40
2019-04-13T06:44:10.546Z,1.57
2019-04-13T06:46:38.927Z,1.73
2019-04-13T06:49:07.294Z,2.20
2019-04-13T06:51:36.442Z,1.60
2019-04-13T06:54:05.187Z,1.67
2019-04-13T06:56:33.671Z,1.50
2019-04-13T06:59:02.164Z,1.60
2019-04-13T07:01:30.658Z,1.57
2019-04-13T07:03:59.366Z,1.30
2019-04-13T07:06:29.068Z,1.33
2019-04-13T07:09:15.712Z,1.60
2019-04-13T07:12:03.554Z,1.50
2019-04-13T07:14:31.879Z,1.73
2019-04-13T07:17:19.728Z,1.83
2019-04-13T07:19:48.339Z,1.80
2019-04-13T07:22:16.790Z,1.40
2019-04-13T07:24:45.234Z,1.50
2019-04-13T07:27:13.842Z,1.50
2019-04-13T07:29:42.334Z,1.50
2019-04-13T07:32:12.612Z,1.70
2019-04-13T07:34:41.093Z,1.53
2019-04-13T07:37:12.175Z,1.63
2019-04-13T07:39:39.925Z,1.43
2019-04-13T07:42:08.467Z,1.80
2019-04-13T07:44:45.522Z,1.60
2019-04-13T07:47:36.429Z,1.40
2019-04-13T07:50:34.157Z,0.60
2019-04-13T07:53:07.466Z,0.90
2019-04-13T07:55:36.484Z,1.00
2019-04-13T07:58:05.734Z,0.90
2019-04-13T08:00:35.397Z,0.80
2019-04-13T08:03:04.574Z,0.80
2019-04-13T08:05:33.287Z,0.70
2019-04-13T08:08:03.422Z,0.60
2019-04-13T08:10:31.998Z,0.73
2019-04-13T08:13:01.728Z,0.90
2019-04-13T08:15:30.965Z,0.80
2019-04-13T08:17:59.838Z,0.63
2019-04-13T08:20:34.297Z,0.90
2019-04-13T08:23:03.953Z,0.80
2019-04-13T08:25:42.213Z,0.70
2019-04-13T08:28:15.044Z,0.70
2019-04-13T08:30:42.770Z,0.80
2019-04-13T08:33:11.338Z,0.70
2019-04-13T08:35:42.193Z,0.60
2019-04-13T08:38:13.201Z,0.93
2019-04-13T08:40:40.405Z,1.03
2019-04-13T08:43:09.159Z,0.90
2019-04-13T08:45:37.871Z,0.70
2019-04-13T08:48:06.358Z,0.70
2019-04-13T08:50:34.881Z,0.63
2019-04-13T08:53:03.709Z,0.60
2019-04-13T08:55:32.603Z,0.50
2019-04-13T08:58:01.982Z,0.70
2019-04-13T09:00:30.651Z,0.50
2019-04-13T09:02:59.478Z,0.30
2019-04-13T09:05:28.646Z,0.40
2019-04-13T09:07:58.741Z,0.63
2019-04-13T09:10:30.229Z,0.70
2019-04-13T09:12:59.784Z,0.80
2019-04-13T09:15:31.606Z,0.80
2019-04-13T09:18:22.726Z,0.80
2019-04-13T09:21:00.503Z,0.87
2019-04-13T09:23:27.656Z,0.90
2019-04-13T09:25:59.111Z,0.60
2019-04-13T09:28:26.784Z,0.50
2019-04-13T09:30:55.627Z,0.83
2019-04-13T09:33:24.338Z,1.00
2019-04-13T09:35:56.271Z,1.30
2019-04-13T09:38:24.019Z,0.80
2019-04-13T09:40:52.846Z,0.60
2019-04-13T09:43:26.754Z,0.87
2019-04-13T09:45:55.242Z,1.20
2019-04-13T09:48:23.836Z,1.03
2019-04-13T09:50:52.770Z,1.00
2019-04-13T09:53:22.296Z,0.90
2019-04-13T09:55:51.463Z,1.20
2019-04-13T09:58:20.730Z,0.90
2019-04-13T10:00:52.411Z,0.93
2019-04-13T10:03:21.536Z,0.90
2019-04-13T10:05:50.397Z,1.20
2019-04-13T10:08:20.404Z,0.87
2019-04-13T10:10:49.953Z,0.90
2019-04-13T10:13:43.588Z,1.00
2019-04-13T10:16:23.278Z,0.90
2019-04-13T10:18:55.349Z,1.00
2019-04-13T10:21:23.813Z,1.00
2019-04-13T10:23:52.718Z,1.40
2019-04-13T10:26:21.644Z,1.27
2019-04-13T10:28:50.698Z,0.70
2019-04-13T10:31:19.101Z,0.67
2019-04-13T10:33:47.576Z,1.03
2019-04-13T10:36:15.987Z,1.30
2019-04-13T10:38:44.386Z,0.90
2019-04-13T10:41:12.705Z,1.03
2019-04-13T10:43:42.884Z,1.03
2019-04-13T10:46:32.482Z,1.00
2019-04-13T10:49:24.238Z,0.73
2019-04-13T10:51:58.451Z,0.93
2019-04-13T10:54:26.797Z,1.00
2019-04-13T10:56:55.349Z,0.90
2019-04-13T10:59:23.908Z,1.00
2019-04-13T11:01:52.318Z,0.87
2019-04-13T11:04:20.787Z,1.17
2019-04-13T11:06:52.618Z,0.70
2019-04-13T11:09:22.138Z,1.00
2019-04-13T11:11:50.637Z,1.00
2019-04-13T11:14:20.595Z,0.93
2019-04-13T11:16:49.199Z,1.07
2019-04-13T11:19:17.934Z,0.93
2019-04-13T11:21:47.249Z,1.20
2019-04-13T11:24:16.595Z,1.00
2019-04-13T11:26:45.409Z,1.40
2019-04-13T11:29:13.777Z,1.07
2019-04-13T11:31:42.278Z,1.00
2019-04-13T11:34:10.918Z,1.00
2019-04-13T11:36:39.226Z,1.17
2019-04-13T11:39:07.781Z,1.13
2019-04-13T11:41:56.789Z,1.10
2019-04-13T11:44:53.507Z,1.10
2019-04-13T11:47:42.850Z,1.10
2019-04-13T11:50:18.406Z,1.03
2019-04-13T11:52:47.074Z,1.40
2019-04-13T11:55:15.504Z,1.40
2019-04-13T11:57:48.409Z,1.50
2019-04-13T12:00:36.122Z,1.33
2019-04-13T12:03:15.856Z,1.03
2019-04-13T12:05:47.017Z,1.70
2019-04-13T12:08:20.192Z,1.60
2019-04-13T12:11:08.336Z,1.73
2019-04-13T12:14:00.367Z,5.50
2019-04-13T12:16:40.456Z,2.27
2019-04-13T12:19:37.072Z,1.90
2019-04-13T12:22:12.393Z,1.60
2019-04-13T12:24:40.897Z,1.70
2019-04-13T12:27:09.508Z,1.20
2019-04-13T12:29:39.162Z,1.60
2019-04-13T12:32:23.464Z,1.17
2019-04-13T12:34:48.937Z,1.07
2019-04-13T12:37:17.541Z,1.30
2019-04-13T12:40:01.877Z,1.23
2019-04-13T12:42:20.231Z,1.57
2019-04-13T12:44:50.203Z,1.30
2019-04-13T12:47:20.395Z,1.63
2019-04-13T12:49:49.238Z,1.67
2019-04-13T12:52:18.002Z,1.30
2019-04-13T12:54:47.706Z,1.00
2019-04-13T12:57:16.725Z,0.90
2019-04-13T12:59:45.913Z,0.73
2019-04-13T13:02:39.475Z,0.87
2019-04-13T13:05:20.221Z,0.90
2019-04-13T13:07:48.794Z,0.60
2019-04-13T13:10:17.538Z,0.50
2019-04-13T13:12:46.475Z,0.80
2019-04-13T13:15:15.414Z,0.70
2019-04-13T13:17:44.172Z,0.63
2019-04-13T13:20:16.546Z,0.80
2019-04-13T13:22:44.050Z,0.90
2019-04-13T13:25:13.939Z,0.90
2019-04-13T13:27:43.777Z,0.70
2019-04-13T13:30:12.840Z,0.70
2019-04-13T13:32:41.580Z,0.70
2019-04-13T13:35:10.329Z,0.80
2019-04-13T13:37:44.290Z,0.60
2019-04-13T13:40:15.857Z,0.90
2019-04-13T13:42:45.077Z,0.70
2019-04-13T13:45:13.956Z,0.87
2019-04-13T13:47:42.608Z,0.90
2019-04-13T13:50:13.185Z,0.90
2019-04-13T13:52:41.693Z,0.50
2019-04-13T13:55:11.771Z,0.90
2019-04-13T13:57:47.670Z,0.80
2019-04-13T14:00:18.905Z,0.77
2019-04-13T14:02:48.045Z,0.73
2019-04-13T14:05:17.055Z,0.70
2019-04-13T14:07:45.819Z,1.00
2019-04-13T14:10:15.253Z,0.70
2019-04-13T14:12:44.328Z,1.03
2019-04-13T14:15:14.860Z,2.00
2019-04-13T14:17:43.787Z,1.20
2019-04-13T14:20:13.224Z,1.67
2019-04-13T14:22:41.928Z,1.63
2019-04-13T14:25:10.765Z,2.33
2019-04-13T14:27:40.151Z,1.87
2019-04-13T14:30:09.178Z,2.37
2019-04-13T14:32:37.569Z,1.73
2019-04-13T14:35:07.145Z,2.10
2019-04-13T14:37:35.857Z,2.37
2019-04-13T14:40:05.979Z,2.80
2019-04-13T14:42:35.380Z,2.10
2019-04-13T14:45:05.888Z,1.33
2019-04-13T14:47:35.867Z,1.40
2019-04-13T14:50:07.313Z,2.10
2019-04-13T14:52:36.360Z,1.30
2019-04-13T14:55:06.940Z,1.30
2019-04-13T14:57:38.936Z,1.17
2019-04-13T15:00:08.051Z,1.13
2019-04-13T15:02:37.228Z,1.20
2019-04-13T15:05:08.276Z,1.50
2019-04-13T15:07:37.899Z,1.40
2019-04-13T15:10:07.485Z,1.50
2019-04-13T15:12:37.486Z,1.80
2019-04-13T15:15:07.256Z,1.53
2019-04-13T15:17:53.638Z,2.33
2019-04-13T15:20:26.499Z,4.33
2019-04-13T15:22:57.402Z,2.83
2019-04-13T15:25:24.780Z,2.57
2019-04-13T15:27:58.041Z,2.80
2019-04-13T15:30:26.906Z,2.00
2019-04-13T15:32:56.119Z,2.03
2019-04-13T15:35:25.843Z,2.93
2019-04-13T15:37:56.281Z,3.23
2019-04-13T15:40:31.379Z,4.10
2019-04-13T15:43:04.609Z,4.73
2019-04-13T15:45:31.083Z,11.37
2019-04-13T15:48:00.009Z,17.90
2019-04-13T15:50:30.473Z,6.67
2019-04-13T15:52:59.595Z,6.97
2019-04-13T15:55:29.427Z,8.40
2019-04-13T15:57:58.068Z,15.23
2019-04-13T16:00:27.949Z,50.73
2019-04-13T16:02:57.115Z,9.20
2019-04-13T16:05:26.828Z,5.60
2019-04-13T16:07:57.257Z,5.10
2019-04-13T16:10:36.187Z,6.47
2019-04-13T16:13:07.008Z,5.33
2019-04-13T16:15:38.211Z,5.67
2019-04-13T16:18:08.743Z,4.83
2019-04-13T16:20:38.216Z,5.07
2019-04-13T16:23:07.066Z,4.87
2019-04-13T16:25:36.009Z,7.77
2019-04-13T16:28:28.665Z,7.30
2019-04-13T16:31:24.693Z,7.40
2019-04-13T16:34:03.087Z,6.47
2019-04-13T16:36:37.745Z,6.90
2019-04-13T16:39:13.489Z,5.57
2019-04-13T16:41:40.138Z,7.27
2019-04-13T16:44:26.811Z,7.60
2019-04-13T16:47:02.239Z,6.20
2019-04-13T16:49:46.553Z,6.70
2019-04-13T16:52:32.221Z,5.77
2019-04-13T16:55:22.245Z,7.20
2019-04-13T16:57:58.903Z,5.60
2019-04-13T17:00:52.096Z,6.00
2019-04-13T17:03:41.588Z,3.77
2019-04-13T17:06:11.247Z,4.40
2019-04-13T17:08:41.118Z,3.73
2019-04-13T17:11:11.354Z,5.13
2019-04-13T17:13:41.219Z,5.13
2019-04-13T17:16:11.311Z,4.70
2019-04-13T17:18:59.786Z,4.87
2019-04-13T17:21:35.910Z,5.67
2019-04-13T17:24:17.594Z,5.30
2019-04-13T17:26:59.239Z,5.20
2019-04-13T17:29:48.087Z,7.43
2019-04-13T17:32:35.367Z,4.83
2019-04-13T17:35:17.753Z,5.27
2019-04-13T17:37:48.464Z,5.77
2019-04-13T17:40:23.920Z,6.73
2019-04-13T17:43:10.176Z,8.27
2019-04-13T17:45:59.147Z,5.50
2019-04-13T17:49:02.880Z,3.17
2019-04-13T17:51:51.799Z,3.93
2019-04-13T17:54:31.026Z,4.23
2019-04-13T17:56:59.781Z,3.47
2019-04-13T18:00:04.164Z,4.07
2019-04-13T18:02:50.615Z,3.50
2019-04-13T18:05:45.813Z,3.70
2019-04-13T18:08:53.736Z,3.30
2019-04-13T18:11:38.439Z,4.03
2019-04-13T18:14:28.246Z,5.00
2019-04-13T18:17:07.381Z,4.53
2019-04-13T18:19:39.894Z,5.23
2019-04-13T18:22:10.072Z,5.60
2019-04-13T18:24:38.738Z,4.87
2019-04-13T18:27:08.667Z,5.60
2019-04-13T18:29:38.481Z,7.93
2019-04-13T18:32:07.713Z,11.67
2019-04-13T18:34:37.665Z,10.40
2019-04-13T18:37:07.919Z,13.90
2019-04-13T18:39:36.772Z,20.03
2019-04-13T18:42:05.645Z,15.53
2019-04-13T18:44:34.716Z,10.57
2019-04-13T18:47:03.902Z,22.50
2019-04-13T18:49:34.603Z,23.63
2019-04-13T18:52:05.019Z,22.80
2019-04-13T18:54:34.322Z,13.60
2019-04-13T18:57:03.238Z,14.10
2019-04-13T18:59:32.088Z,12.77
2019-04-13T19:02:01.474Z,13.60
2019-04-13T19:04:30.968Z,12.13
2019-04-13T19:07:00.885Z,10.80
2019-04-13T19:09:43.849Z,11.28
2019-04-13T19:12:14.018Z,9.53
2019-04-13T19:14:46.398Z,13.07
2019-04-13T19:17:15.692Z,11.60
2019-04-13T19:19:44.341Z,12.20
2019-04-13T19:22:12.980Z,11.67
2019-04-13T19:24:45.276Z,11.80
2019-04-13T19:27:13.987Z,11.93
2019-04-13T19:29:49.451Z,9.93
2019-04-13T19:32:21.292Z,11.07
2019-04-13T19:34:50.113Z,26.70
2019-04-13T19:37:19.412Z,14.03
2019-04-13T19:39:48.917Z,9.60
2019-04-13T19:42:20.238Z,10.03
2019-04-13T19:44:51.016Z,9.70
2019-04-13T19:47:19.767Z,9.33
2019-04-13T19:49:51.586Z,10.20
2019-04-13T19:52:38.562Z,10.17
2019-04-13T19:55:15.633Z,9.77
2019-04-13T19:57:51.673Z,9.03
2019-04-13T20:00:28.094Z,10.57
2019-04-13T20:02:57.864Z,10.93
2019-04-13T20:05:30.512Z,10.30
2019-04-13T20:08:03.533Z,10.87
2019-04-13T20:10:39.046Z,11.03
2019-04-13T20:13:09.059Z,10.20
2019-04-13T20:15:49.185Z,10.10
2019-04-13T20:18:19.524Z,10.67
2019-04-13T20:20:51.421Z,10.70
2019-04-13T20:23:25.031Z,11.13
2019-04-13T20:25:56.868Z,11.73
2019-04-13T20:28:28.647Z,12.60
2019-04-13T20:30:59.434Z,14.50
2019-04-13T20:33:30.871Z,14.83
2019-04-13T20:36:07.474Z,15.27
2019-04-13T20:38:36.752Z,17.57
2019-04-13T20:41:15.530Z,14.40
2019-04-13T20:43:53.732Z,15.23
2019-04-13T20:46:16.762Z,14.87
2019-04-13T20:48:46.705Z,16.30
2019-04-13T20:51:17.019Z,16.47
2019-04-13T20:53:46.311Z,16.93
2019-04-13T20:56:16.427Z,18.73
2019-04-13T20:58:46.461Z,15.67
2019-04-13T21:01:16.864Z,16.90
2019-04-13T21:03:46.931Z,17.30
2019-04-13T21:06:17.280Z,18.80
2019-04-13T21:08:48.930Z,18.53
2019-04-13T21:11:17.238Z,17.03
2019-04-13T21:13:57.404Z,16.93
2019-04-13T21:16:17.082Z,16.20
2019-04-13T21:18:47.122Z,18.47
2019-04-13T21:21:17.091Z,17.30
2019-04-13T21:23:47.146Z,17.03
2019-04-13T21:26:27.056Z,17.37
2019-04-13T21:29:00.399Z,23.23
2019-04-13T21:31:30.269Z,24.10
2019-04-13T21:34:00.505Z,26.23
2019-04-13T21:36:30.589Z,25.03
2019-04-13T21:39:00.480Z,24.73
2019-04-13T21:41:33.066Z,22.97
2019-04-13T21:44:13.303Z,25.90
2019-04-13T21:46:32.737Z,27.00
2019-04-13T21:49:01.450Z,25.57
2019-04-13T21:51:48.790Z,25.27
2019-04-13T21:54:21.731Z,25.70
2019-04-13T21:56:51.500Z,25.83
2019-04-13T21:59:21.593Z,24.90
2019-04-13T22:02:29.576Z,26.17
2019-04-13T22:05:00.700Z,22.40
2019-04-13T22:07:30.957Z,21.00
2019-04-13T22:10:00.758Z,19.70
2019-04-13T22:12:30.742Z,20.60
2019-04-13T22:15:04.098Z,18.00
2019-04-13T22:17:31.443Z,18.33
2019-04-13T22:20:01.604Z,18.63
2019-04-13T22:22:31.398Z,19.53
2019-04-13T22:25:01.285Z,19.23
2019-04-13T22:27:48.338Z,20.53
2019-04-13T22:30:05.951Z,20.47
2019-04-13T22:32:40.813Z,19.67
2019-04-13T22:35:30.349Z,20.27
2019-04-13T22:38:00.241Z,20.87
2019-04-13T22:40:29.932Z,19.80
2019-04-13T22:42:58.599Z,21.63
2019-04-13T22:45:27.680Z,22.90
2019-04-13T22:48:07.156Z,23.97
2019-04-13T22:50:56.594Z,23.07
2019-04-13T22:53:52.837Z,21.17
2019-04-13T22:56:28.834Z,19.83
2019-04-13T22:58:58.018Z,21.30
2019-04-13T23:01:29.199Z,20.27
2019-04-13T23:03:59.323Z,21.53
2019-04-13T23:06:29.233Z,21.97
2019-04-13T23:08:59.554Z,21.30
2019-04-13T23:11:28.243Z,24.00
2019-04-13T23:13:58.200Z,20.03
2019-04-13T23:16:28.119Z,20.00
2019-04-13T23:18:57.971Z,20.77
2019-04-13T23:21:27.066Z,20.80
2019-04-13T23:23:57.227Z,20.53
2019-04-13T23:26:25.848Z,20.50
2019-04-13T23:28:55.414Z,19.00
2019-04-13T23:31:24.409Z,18.63
2019-04-13T23:33:54.217Z,19.00
2019-04-13T23:36:23.085Z,17.60
2019-04-13T23:38:52.866Z,19.67
2019-04-13T23:41:21.619Z,19.00
2019-04-13T23:44:06.908Z,18.93
2019-04-13T23:46:35.814Z,19.00
2019-04-13T23:49:04.334Z,19.23
2019-04-13T23:51:33.798Z,20.77
2019-04-13T23:54:02.549Z,20.77
2019-04-13T23:56:39.066Z,20.37
2019-04-13T23:59:13.266Z,19.73
